Nearby METAR Reports

 

KSJC - San Jose, California, USA
Distance from station: NE 9mi, 14km
Updated: Sun, 20-Jan-2019 10:53pm EST
Mostly cloudy
Mostly cloudy
 Wind from NW
Wind: NW 5 mph , 7 km/h
Temperature: 50°F , 10°C
Wind Chill: 48°F , 9°C
Dew Point: 45°F , 7°C
Humidity: 82%
Barometer: 30.04 inHg , 1017.3 hPa
Clouds: Mostly cloudy
Visibility: 10 miles , 16 km
Cloud details: Few Clouds 900 ft
Partly cloudy 3800 ft
Mostly cloudy 11000 ft
2019/01/21 03:53 KSJC 210353Z 32004KT 10SM FEW009 SCT038 BKN110 10/07 A3004 RMK AO2 RAE48 SLP172 P0002 T01000072 $
KNUQ - Moffett Nas/Mtn, California, USA
Distance from station: N 9mi, 14km
Updated: Sun, 20-Jan-2019 10:56pm EST
Mostly cloudy
Mostly cloudy
 Wind from S
Wind: S 3 mph , 6 km/h
Temperature: 50°F , 10°C
Dew Point: 45°F , 7°C
Humidity: 82%
Barometer: 30.04 inHg , 1017.3 hPa
Clouds: Mostly cloudy
Visibility: 10 miles , 16 km
Cloud details: Few Clouds 4600 ft
Partly cloudy 8500 ft
Mostly cloudy 12000 ft
2019/01/21 03:56 KNUQ 210356Z 17003KT 10SM FEW046 SCT085 BKN120 10/07 A3004 RMK AO2 RAE39 SLP175 P0002 T01000072
 
KPAO - Palo Alto, California, USA
Distance from station: NNW 14mi, 23km
Updated: Sun, 20-Jan-2019 10:47pm EST
Mostly cloudy
Mostly cloudy
 Wind from W
Wind: W 12 mph , 19 km/h
Temperature: 50°F , 10°C
Wind Chill: 45°F , 7°C
Dew Point: 45°F , 7°C
Humidity: 82%
Barometer: 30.04 inHg , 1017.3 hPa
Clouds: Mostly cloudy
Visibility: 10 miles , 16 km
Cloud details: Partly cloudy 2000 ft
Mostly cloudy 4000 ft
2019/01/21 03:47 KPAO 210347Z 27010KT 10SM SCT020 BKN040 10/07 A3004
KRHV - San Jose/Reid, California, USA
Distance from station: ENE 12mi, 19km
Updated: Sun, 20-Jan-2019 10:58pm EST
Mostly cloudy
Mostly cloudy
 Wind from calm
Wind: Calm
Temperature: 50°F , 10°C
Dew Point: 48°F , 9°C
Humidity: 94%
Barometer: 30.03 inHg , 1016.9 hPa
Clouds: Mostly cloudy
Visibility: 10 miles , 16 km
Cloud details: Mostly cloudy 11000 ft
2019/01/21 03:58 KRHV 210358Z 00000KT 10SM BKN110 10/09 A3003
 
KOAK - Oakland, California, USA
Distance from station: NNW 31mi, 50km
Updated: Sun, 20-Jan-2019 10:53pm EST
Mostly cloudy
Mostly cloudy
 Wind from W
Wind: W 14 mph , 22 km/h
Temperature: 52°F , 11°C
Dew Point: 45°F , 7°C
Humidity: 77%
Barometer: 30.02 inHg , 1016.6 hPa
Clouds: Mostly cloudy
Visibility: 10 miles , 16 km
Cloud details: Partly cloudy 3000 ft
Mostly cloudy 4400 ft
Mostly cloudy 12000 ft
2019/01/21 03:53 KOAK 210353Z 26012KT 10SM SCT030 BKN044 BKN120 11/07 A3002 RMK AO2 RAE18 SLP163 P0000 T01110072
KSQL - San Carlos Airpo, California, USA
Distance from station: NW 21mi, 34km
Updated: Sun, 20-Jan-2019 10:50pm EST
Mostly cloudy
Mostly cloudy
 Wind from W
Wind: W 10 mph , 17 km/h
Temperature: 50°F , 10°C
Wind Chill: 46°F , 8°C
Dew Point: 45°F , 7°C
Humidity: 82%
Barometer: 30.02 inHg , 1016.6 hPa
Clouds: Mostly cloudy
Visibility: 10 miles , 16 km
Cloud details: Few Clouds 5000 ft
Partly cloudy 10000 ft
Mostly cloudy 12000 ft
2019/01/21 03:50 KSQL 210350Z 26009KT 10SM FEW050 SCT100 BKN120 10/07 A3002
 
KSFO - San Francisco, California, USA
Distance from station: NW 30mi, 49km
Updated: Sun, 20-Jan-2019 10:56pm EST
Mostly cloudy
Mostly cloudy
 Wind from WSW
Wind: WSW 15 mph , 24 km/h
Temperature: 55°F , 13°C
Dew Point: 43°F , 6°C
Humidity: 63%
Barometer: 30.00 inHg , 1015.9 hPa
Clouds: Mostly cloudy
Visibility: 10 miles , 16 km
Cloud details: Partly cloudy 3900 ft
Mostly cloudy 11000 ft
2019/01/21 03:56 KSFO 210356Z 25013KT 10SM SCT039 BKN110 13/06 A3000 RMK AO2 RAE06 SLP160 P0001 T01280061 $
KE16 - San Martin, California, USA
Distance from station: ESE 27mi, 43km
Updated: Sun, 20-Jan-2019 11:10pm EST
Light rain, Overcast
Light rain, Overcast
 Wind from NNW
Wind: NNW 9 mph , 15 km/h
Temperature: 48°F , 9°C
Wind Chill: 44°F , 7°C
Dew Point: 46°F , 8°C
Humidity: 94%
Barometer: 30.05 inHg , 1017.6 hPa
Summary: Light rain
Clouds: Overcast
Visibility: 9 miles , 14 km
Cloud details: Few Clouds 1300 ft
Mostly cloudy 4500 ft
Overcast 7000 ft
2019/01/21 04:10 KE16 210410Z AUTO 33008KT 9SM -RA FEW013 BKN045 OVC070 09/08 A3005 RMK AO2
 
KWVI - Watsonville, California, USA
Distance from station: SSE 27mi, 44km
Updated: Sun, 20-Jan-2019 10:53pm EST
Light rain, Overcast
Light rain, Overcast
 Wind from W
Wind: W 7 mph , 11 km/h
Temperature: 50°F , 10°C
Wind Chill: 47°F , 8°C
Dew Point: 46°F , 8°C
Humidity: 88%
Barometer: 30.04 inHg , 1017.3 hPa
Summary: Light rain
Clouds: Overcast
Visibility: 9 miles , 14 km
Cloud details: Overcast 5000 ft
2019/01/21 03:53 KWVI 210353Z AUTO 28006KT 9SM -RA OVC050 10/08 A3004 RMK AO2 RAB21 SLP172 P0002 T01000083
KHAF - Half Moon Bay, California, USA
Distance from station: WNW 31mi, 50km
Updated: Sun, 20-Jan-2019 11:15pm EST
Overcast
Overcast
 Wind from WNW
Wind: WNW 16 mph , 26 km/h, Gust: 23 mph , 37 km/h
Temperature: 52°F , 11°C
Dew Point: 45°F , 7°C
Humidity: 77%
Barometer: 30.03 inHg , 1016.9 hPa
Clouds: Overcast
Visibility: 8 miles , 13 km
Cloud details: Partly cloudy 2900 ft
Mostly cloudy 3700 ft
Overcast 8000 ft
2019/01/21 04:15 KHAF 210415Z AUTO 30014G20KT 8SM SCT029 BKN037 OVC080 11/07 A3003 RMK AO2
 
KHWD - Hayward, California, USA
Distance from station: N 28mi, 44km
Updated: Sun, 20-Jan-2019 10:54pm EST
Mostly cloudy
Mostly cloudy
 Wind from SW
Wind: SW 5 mph , 7 km/h
Temperature: 52°F , 11°C
Dew Point: 45°F , 7°C
Humidity: 77%
Barometer: 30.01 inHg , 1016.3 hPa
Clouds: Mostly cloudy
Visibility: 10 miles , 16 km
Cloud details: Few Clouds 2300 ft
Partly cloudy 3400 ft
Mostly cloudy 12000 ft
2019/01/21 03:54 KHWD 210354Z 23004KT 10SM FEW023 SCT034 BKN120 11/07 A3001 RMK AO2 RAE27 SLP173 P0001 T01060072
KLVK - Livermore, California, USA
Distance from station: NNE 31mi, 51km
Updated: Sun, 20-Jan-2019 10:53pm EST
Overcast
Overcast
 Wind from SW
Wind: SW 5 mph , 7 km/h
Temperature: 46°F , 8°C
Wind Chill: 44°F , 7°C
Dew Point: 45°F , 7°C
Humidity: 93%
Barometer: 30.00 inHg , 1015.9 hPa
Clouds: Overcast
Visibility: 10 miles , 16 km
Cloud details: Partly cloudy 4500 ft
Mostly cloudy 5000 ft
Overcast 10000 ft
2019/01/21 03:53 KLVK 210353Z 23004KT 10SM SCT045 BKN050 OVC100 08/07 A3000 RMK AO2 RAE49 SLP159 P0002 T00830067 $